sensor_id;sensor_type;location;lat;lon;timestamp;P1;durP1;ratioP1;P2;durP2;ratioP2
39846;SDS011;25517;52.422;10.782;2022-12-18T00:00:56;76.28;;;34.30;;
39846;SDS011;25517;52.422;10.782;2022-12-18T00:03:22;68.63;;;33.08;;
39846;SDS011;25517;52.422;10.782;2022-12-18T00:05:48;76.68;;;33.97;;
39846;SDS011;25517;52.422;10.782;2022-12-18T00:08:17;56.88;;;25.95;;
39846;SDS011;25517;52.422;10.782;2022-12-18T00:10:43;65.95;;;32.35;;
39846;SDS011;25517;52.422;10.782;2022-12-18T00:13:09;70.65;;;32.80;;
39846;SDS011;25517;52.422;10.782;2022-12-18T00:15:35;69.22;;;33.03;;
39846;SDS011;25517;52.422;10.782;2022-12-18T00:18:02;68.63;;;32.53;;
39846;SDS011;25517;52.422;10.782;2022-12-18T00:20:28;69.85;;;33.20;;
39846;SDS011;25517;52.422;10.782;2022-12-18T00:22:53;70.18;;;34.65;;
39846;SDS011;25517;52.422;10.782;2022-12-18T00:25:19;78.07;;;35.97;;
39846;SDS011;25517;52.422;10.782;2022-12-18T00:27:45;82.68;;;37.90;;
39846;SDS011;25517;52.422;10.782;2022-12-18T00:30:11;75.55;;;36.10;;
39846;SDS011;25517;52.422;10.782;2022-12-18T00:32:37;72.38;;;35.97;;
39846;SDS011;25517;52.422;10.782;2022-12-18T00:35:02;71.80;;;33.17;;
39846;SDS011;25517;52.422;10.782;2022-12-18T00:37:29;71.05;;;34.17;;
39846;SDS011;25517;52.422;10.782;2022-12-18T00:39:54;70.32;;;35.17;;
39846;SDS011;25517;52.422;10.782;2022-12-18T00:42:20;71.47;;;34.28;;
39846;SDS011;25517;52.422;10.782;2022-12-18T00:45:05;67.90;;;31.33;;
39846;SDS011;25517;52.422;10.782;2022-12-18T00:47:30;72.38;;;32.83;;
39846;SDS011;25517;52.422;10.782;2022-12-18T00:49:56;71.82;;;33.30;;
39846;SDS011;25517;52.422;10.782;2022-12-18T00:52:21;68.30;;;32.80;;
39846;SDS011;25517;52.422;10.782;2022-12-18T00:54:47;79.53;;;32.97;;
39846;SDS011;25517;52.422;10.782;2022-12-18T00:57:12;70.43;;;33.38;;
39846;SDS011;25517;52.422;10.782;2022-12-18T00:59:38;77.30;;;36.47;;
39846;SDS011;25517;52.422;10.782;2022-12-18T01:02:03;70.53;;;32.72;;
39846;SDS011;25517;52.422;10.782;2022-12-18T01:04:30;77.50;;;33.15;;
39846;SDS011;25517;52.422;10.782;2022-12-18T01:06:57;68.43;;;34.20;;
39846;SDS011;25517;52.422;10.782;2022-12-18T01:09:22;72.10;;;33.90;;
39846;SDS011;25517;52.422;10.782;2022-12-18T01:11:48;66.55;;;33.65;;
39846;SDS011;25517;52.422;10.782;2022-12-18T01:14:13;74.88;;;32.35;;
39846;SDS011;25517;52.422;10.782;2022-12-18T01:16:38;72.18;;;36.15;;
39846;SDS011;25517;52.422;10.782;2022-12-18T01:19:04;80.68;;;35.53;;
39846;SDS011;25517;52.422;10.782;2022-12-18T01:21:29;75.07;;;35.35;;
39846;SDS011;25517;52.422;10.782;2022-12-18T01:23:55;78.22;;;37.08;;
39846;SDS011;25517;52.422;10.782;2022-12-18T01:26:21;77.28;;;33.72;;
39846;SDS011;25517;52.422;10.782;2022-12-18T01:28:48;68.53;;;32.40;;
39846;SDS011;25517;52.422;10.782;2022-12-18T01:31:18;67.18;;;34.67;;
39846;SDS011;25517;52.422;10.782;2022-12-18T01:33:45;66.30;;;31.63;;
39846;SDS011;25517;52.422;10.782;2022-12-18T01:36:14;74.70;;;34.28;;
39846;SDS011;25517;52.422;10.782;2022-12-18T01:38:40;56.83;;;24.92;;
39846;SDS011;25517;52.422;10.782;2022-12-18T01:41:06;77.15;;;34.58;;
39846;SDS011;25517;52.422;10.782;2022-12-18T01:46:25;76.65;;;33.53;;
39846;SDS011;25517;52.422;10.782;2022-12-18T01:48:59;64.18;;;32.13;;
39846;SDS011;25517;52.422;10.782;2022-12-18T01:51:27;56.90;;;29.73;;
39846;SDS011;25517;52.422;10.782;2022-12-18T01:53:54;67.50;;;31.92;;
39846;SDS011;25517;52.422;10.782;2022-12-18T01:56:20;69.47;;;31.45;;
39846;SDS011;25517;52.422;10.782;2022-12-18T01:58:58;68.22;;;32.15;;
39846;SDS011;25517;52.422;10.782;2022-12-18T02:01:28;63.88;;;30.52;;
39846;SDS011;25517;52.422;10.782;2022-12-18T02:03:55;67.07;;;30.08;;
39846;SDS011;25517;52.422;10.782;2022-12-18T02:06:40;60.88;;;29.40;;
39846;SDS011;25517;52.422;10.782;2022-12-18T02:09:10;65.63;;;29.35;;
39846;SDS011;25517;52.422;10.782;2022-12-18T02:14:49;58.00;;;28.20;;
39846;SDS011;25517;52.422;10.782;2022-12-18T02:17:45;66.75;;;31.90;;
39846;SDS011;25517;52.422;10.782;2022-12-18T02:25:54;55.00;;;26.73;;
39846;SDS011;25517;52.422;10.782;2022-12-18T02:28:30;62.28;;;28.38;;
39846;SDS011;25517;52.422;10.782;2022-12-18T02:30:59;65.40;;;29.83;;
39846;SDS011;25517;52.422;10.782;2022-12-18T02:33:28;66.07;;;28.40;;
39846;SDS011;25517;52.422;10.782;2022-12-18T02:35:55;57.65;;;28.90;;
39846;SDS011;25517;52.422;10.782;2022-12-18T02:38:22;59.40;;;28.00;;
39846;SDS011;25517;52.422;10.782;2022-12-18T02:40:49;52.65;;;27.60;;
39846;SDS011;25517;52.422;10.782;2022-12-18T02:43:18;55.97;;;26.45;;
39846;SDS011;25517;52.422;10.782;2022-12-18T02:45:50;59.17;;;25.52;;
39846;SDS011;25517;52.422;10.782;2022-12-18T02:48:21;52.85;;;25.15;;
39846;SDS011;25517;52.422;10.782;2022-12-18T02:50:52;50.90;;;24.70;;
39846;SDS011;25517;52.422;10.782;2022-12-18T02:53:43;52.55;;;25.40;;
39846;SDS011;25517;52.422;10.782;2022-12-18T02:56:17;52.38;;;23.85;;
39846;SDS011;25517;52.422;10.782;2022-12-18T02:58:57;52.92;;;25.27;;
39846;SDS011;25517;52.422;10.782;2022-12-18T03:01:34;49.13;;;23.60;;
39846;SDS011;25517;52.422;10.782;2022-12-18T03:07:28;49.63;;;24.15;;
39846;SDS011;25517;52.422;10.782;2022-12-18T03:10:07;48.90;;;23.05;;
39846;SDS011;25517;52.422;10.782;2022-12-18T03:12:37;42.63;;;21.67;;
39846;SDS011;25517;52.422;10.782;2022-12-18T03:17:40;41.17;;;19.98;;
39846;SDS011;25517;52.422;10.782;2022-12-18T03:20:10;53.05;;;22.95;;
39846;SDS011;25517;52.422;10.782;2022-12-18T03:22:39;51.78;;;23.63;;
39846;SDS011;25517;52.422;10.782;2022-12-18T03:25:08;52.72;;;22.38;;
39846;SDS011;25517;52.422;10.782;2022-12-18T03:27:38;48.83;;;23.35;;
39846;SDS011;25517;52.422;10.782;2022-12-18T03:30:08;50.78;;;23.63;;
39846;SDS011;25517;52.422;10.782;2022-12-18T03:33:00;55.95;;;24.00;;
39846;SDS011;25517;52.422;10.782;2022-12-18T03:35:45;50.58;;;23.77;;
39846;SDS011;25517;52.422;10.782;2022-12-18T03:38:11;54.08;;;24.83;;
39846;SDS011;25517;52.422;10.782;2022-12-18T03:40:43;47.92;;;23.67;;
39846;SDS011;25517;52.422;10.782;2022-12-18T03:45:51;54.30;;;24.27;;
39846;SDS011;25517;52.422;10.782;2022-12-18T03:48:26;48.15;;;23.92;;
39846;SDS011;25517;52.422;10.782;2022-12-18T03:50:57;51.75;;;23.30;;
39846;SDS011;25517;52.422;10.782;2022-12-18T03:55:58;53.80;;;24.80;;
39846;SDS011;25517;52.422;10.782;2022-12-18T03:58:25;50.95;;;24.42;;
39846;SDS011;25517;52.422;10.782;2022-12-18T04:00:54;46.17;;;23.30;;
39846;SDS011;25517;52.422;10.782;2022-12-18T04:03:24;51.47;;;24.60;;
39846;SDS011;25517;52.422;10.782;2022-12-18T04:05:51;55.35;;;25.25;;
39846;SDS011;25517;52.422;10.782;2022-12-18T04:08:19;53.15;;;24.65;;
39846;SDS011;25517;52.422;10.782;2022-12-18T04:10:45;52.08;;;24.02;;
39846;SDS011;25517;52.422;10.782;2022-12-18T04:13:11;56.28;;;24.48;;
39846;SDS011;25517;52.422;10.782;2022-12-18T04:15:36;55.78;;;25.52;;
39846;SDS011;25517;52.422;10.782;2022-12-18T04:18:03;48.75;;;23.88;;
39846;SDS011;25517;52.422;10.782;2022-12-18T04:20:28;54.92;;;25.38;;
39846;SDS011;25517;52.422;10.782;2022-12-18T04:22:54;50.80;;;25.10;;
39846;SDS011;25517;52.422;10.782;2022-12-18T04:25:19;47.30;;;23.45;;
39846;SDS011;25517;52.422;10.782;2022-12-18T04:27:45;56.92;;;24.60;;
39846;SDS011;25517;52.422;10.782;2022-12-18T04:30:10;54.75;;;23.17;;
39846;SDS011;25517;52.422;10.782;2022-12-18T04:32:36;47.63;;;23.08;;
39846;SDS011;25517;52.422;10.782;2022-12-18T04:35:02;45.90;;;22.77;;
39846;SDS011;25517;52.422;10.782;2022-12-18T04:37:29;48.28;;;22.20;;
39846;SDS011;25517;52.422;10.782;2022-12-18T04:39:54;45.90;;;23.80;;
39846;SDS011;25517;52.422;10.782;2022-12-18T04:42:20;45.35;;;22.90;;
39846;SDS011;25517;52.422;10.782;2022-12-18T04:44:45;50.35;;;23.98;;
39846;SDS011;25517;52.422;10.782;2022-12-18T04:47:11;51.17;;;24.25;;
39846;SDS011;25517;52.422;10.782;2022-12-18T04:49:36;58.63;;;26.67;;
39846;SDS011;25517;52.422;10.782;2022-12-18T04:52:02;50.65;;;23.25;;
39846;SDS011;25517;52.422;10.782;2022-12-18T04:54:27;45.28;;;22.58;;
39846;SDS011;25517;52.422;10.782;2022-12-18T04:56:52;47.38;;;22.98;;
39846;SDS011;25517;52.422;10.782;2022-12-18T04:59:18;46.92;;;23.23;;
39846;SDS011;25517;52.422;10.782;2022-12-18T05:01:43;44.90;;;21.45;;
39846;SDS011;25517;52.422;10.782;2022-12-18T05:04:10;44.75;;;22.95;;
39846;SDS011;25517;52.422;10.782;2022-12-18T05:06:36;43.30;;;21.15;;
39846;SDS011;25517;52.422;10.782;2022-12-18T05:09:01;49.10;;;22.23;;
39846;SDS011;25517;52.422;10.782;2022-12-18T05:11:27;53.97;;;22.67;;
39846;SDS011;25517;52.422;10.782;2022-12-18T05:13:52;49.50;;;23.58;;
39846;SDS011;25517;52.422;10.782;2022-12-18T05:16:18;49.58;;;21.83;;
39846;SDS011;25517;52.422;10.782;2022-12-18T05:18:43;44.30;;;23.17;;
39846;SDS011;25517;52.422;10.782;2022-12-18T05:21:09;50.08;;;23.48;;
39846;SDS011;25517;52.422;10.782;2022-12-18T05:23:34;44.78;;;22.73;;
39846;SDS011;25517;52.422;10.782;2022-12-18T05:26:02;45.05;;;21.95;;
39846;SDS011;25517;52.422;10.782;2022-12-18T05:28:30;45.10;;;21.92;;
39846;SDS011;25517;52.422;10.782;2022-12-18T05:30:58;44.92;;;22.10;;
39846;SDS011;25517;52.422;10.782;2022-12-18T05:33:25;46.80;;;21.20;;
39846;SDS011;25517;52.422;10.782;2022-12-18T05:35:54;50.20;;;22.42;;
39846;SDS011;25517;52.422;10.782;2022-12-18T05:38:25;46.28;;;20.52;;
39846;SDS011;25517;52.422;10.782;2022-12-18T05:40:52;43.95;;;22.20;;
39846;SDS011;25517;52.422;10.782;2022-12-18T05:43:18;43.13;;;20.77;;
39846;SDS011;25517;52.422;10.782;2022-12-18T05:45:46;42.63;;;20.65;;
39846;SDS011;25517;52.422;10.782;2022-12-18T05:48:12;42.35;;;20.27;;
39846;SDS011;25517;52.422;10.782;2022-12-18T05:50:39;46.08;;;21.20;;
39846;SDS011;25517;52.422;10.782;2022-12-18T05:53:06;47.33;;;21.75;;
39846;SDS011;25517;52.422;10.782;2022-12-18T05:55:33;42.17;;;20.05;;
39846;SDS011;25517;52.422;10.782;2022-12-18T05:58:00;43.83;;;21.92;;
39846;SDS011;25517;52.422;10.782;2022-12-18T06:00:26;39.80;;;19.90;;
39846;SDS011;25517;52.422;10.782;2022-12-18T06:02:51;44.10;;;19.63;;
39846;SDS011;25517;52.422;10.782;2022-12-18T06:05:17;43.97;;;20.40;;
39846;SDS011;25517;52.422;10.782;2022-12-18T06:07:42;43.97;;;20.15;;
39846;SDS011;25517;52.422;10.782;2022-12-18T06:10:08;42.20;;;19.17;;
39846;SDS011;25517;52.422;10.782;2022-12-18T06:12:33;38.20;;;18.25;;
39846;SDS011;25517;52.422;10.782;2022-12-18T06:14:59;39.65;;;19.10;;
39846;SDS011;25517;52.422;10.782;2022-12-18T06:17:28;43.75;;;20.38;;
39846;SDS011;25517;52.422;10.782;2022-12-18T06:19:55;46.22;;;20.73;;
39846;SDS011;25517;52.422;10.782;2022-12-18T06:22:20;47.05;;;21.05;;
39846;SDS011;25517;52.422;10.782;2022-12-18T06:24:46;39.72;;;19.48;;
39846;SDS011;25517;52.422;10.782;2022-12-18T06:27:11;48.42;;;22.40;;
39846;SDS011;25517;52.422;10.782;2022-12-18T06:29:37;41.63;;;20.30;;
39846;SDS011;25517;52.422;10.782;2022-12-18T06:32:02;46.28;;;20.20;;
39846;SDS011;25517;52.422;10.782;2022-12-18T06:34:28;40.15;;;17.95;;
39846;SDS011;25517;52.422;10.782;2022-12-18T06:36:54;46.53;;;22.00;;
39846;SDS011;25517;52.422;10.782;2022-12-18T06:39:19;45.78;;;21.58;;
39846;SDS011;25517;52.422;10.782;2022-12-18T06:41:44;41.65;;;20.15;;
39846;SDS011;25517;52.422;10.782;2022-12-18T06:44:10;50.25;;;22.83;;
39846;SDS011;25517;52.422;10.782;2022-12-18T06:46:36;45.35;;;21.88;;
39846;SDS011;25517;52.422;10.782;2022-12-18T06:49:02;44.45;;;20.63;;
39846;SDS011;25517;52.422;10.782;2022-12-18T06:51:28;45.08;;;21.27;;
39846;SDS011;25517;52.422;10.782;2022-12-18T06:53:54;42.13;;;19.50;;
39846;SDS011;25517;52.422;10.782;2022-12-18T06:56:19;46.60;;;21.17;;
39846;SDS011;25517;52.422;10.782;2022-12-18T06:58:45;40.90;;;19.58;;
39846;SDS011;25517;52.422;10.782;2022-12-18T07:01:11;44.08;;;19.90;;
39846;SDS011;25517;52.422;10.782;2022-12-18T07:03:38;45.15;;;19.08;;
39846;SDS011;25517;52.422;10.782;2022-12-18T07:06:04;48.47;;;21.13;;
39846;SDS011;25517;52.422;10.782;2022-12-18T07:08:31;41.08;;;20.98;;
39846;SDS011;25517;52.422;10.782;2022-12-18T07:10:57;43.25;;;18.88;;
39846;SDS011;25517;52.422;10.782;2022-12-18T07:13:22;43.13;;;20.80;;
39846;SDS011;25517;52.422;10.782;2022-12-18T07:15:48;47.97;;;23.85;;
39846;SDS011;25517;52.422;10.782;2022-12-18T07:18:14;48.45;;;20.02;;
39846;SDS011;25517;52.422;10.782;2022-12-18T07:20:39;44.25;;;21.10;;
39846;SDS011;25517;52.422;10.782;2022-12-18T07:23:05;47.53;;;22.88;;
39846;SDS011;25517;52.422;10.782;2022-12-18T07:25:37;49.33;;;21.85;;
39846;SDS011;25517;52.422;10.782;2022-12-18T07:28:02;46.08;;;22.17;;
39846;SDS011;25517;52.422;10.782;2022-12-18T07:30:28;52.80;;;23.25;;
39846;SDS011;25517;52.422;10.782;2022-12-18T07:32:54;43.88;;;20.20;;
39846;SDS011;25517;52.422;10.782;2022-12-18T07:35:19;52.05;;;23.05;;
39846;SDS011;25517;52.422;10.782;2022-12-18T07:37:45;45.85;;;21.63;;
39846;SDS011;25517;52.422;10.782;2022-12-18T07:40:10;53.75;;;20.98;;
39846;SDS011;25517;52.422;10.782;2022-12-18T07:42:36;47.47;;;21.33;;
39846;SDS011;25517;52.422;10.782;2022-12-18T07:45:02;50.95;;;22.83;;
39846;SDS011;25517;52.422;10.782;2022-12-18T07:47:28;47.58;;;22.77;;
39846;SDS011;25517;52.422;10.782;2022-12-18T07:49:54;44.22;;;21.95;;
39846;SDS011;25517;52.422;10.782;2022-12-18T07:52:20;51.70;;;24.23;;
39846;SDS011;25517;52.422;10.782;2022-12-18T07:54:46;53.05;;;22.85;;
39846;SDS011;25517;52.422;10.782;2022-12-18T07:57:14;58.08;;;25.38;;
39846;SDS011;25517;52.422;10.782;2022-12-18T07:59:41;55.85;;;23.65;;
39846;SDS011;25517;52.422;10.782;2022-12-18T08:02:06;53.22;;;24.15;;
39846;SDS011;25517;52.422;10.782;2022-12-18T08:04:32;51.25;;;22.17;;
39846;SDS011;25517;52.422;10.782;2022-12-18T08:06:57;54.03;;;23.38;;
39846;SDS011;25517;52.422;10.782;2022-12-18T08:09:23;48.10;;;22.15;;
39846;SDS011;25517;52.422;10.782;2022-12-18T08:11:48;49.70;;;23.02;;
39846;SDS011;25517;52.422;10.782;2022-12-18T08:14:14;52.70;;;22.92;;
39846;SDS011;25517;52.422;10.782;2022-12-18T08:16:39;52.50;;;23.23;;
39846;SDS011;25517;52.422;10.782;2022-12-18T08:19:05;54.97;;;24.50;;
39846;SDS011;25517;52.422;10.782;2022-12-18T08:21:30;49.22;;;22.67;;
39846;SDS011;25517;52.422;10.782;2022-12-18T08:23:58;45.83;;;21.25;;
39846;SDS011;25517;52.422;10.782;2022-12-18T08:26:25;58.15;;;24.25;;
39846;SDS011;25517;52.422;10.782;2022-12-18T08:28:52;46.53;;;21.85;;
39846;SDS011;25517;52.422;10.782;2022-12-18T08:31:19;52.53;;;22.75;;
39846;SDS011;25517;52.422;10.782;2022-12-18T08:33:47;52.67;;;23.70;;
39846;SDS011;25517;52.422;10.782;2022-12-18T08:36:14;47.83;;;21.80;;
39846;SDS011;25517;52.422;10.782;2022-12-18T08:38:40;50.53;;;22.88;;
39846;SDS011;25517;52.422;10.782;2022-12-18T08:41:06;48.25;;;23.80;;
39846;SDS011;25517;52.422;10.782;2022-12-18T08:43:34;51.85;;;23.45;;
39846;SDS011;25517;52.422;10.782;2022-12-18T08:46:19;51.33;;;22.50;;
39846;SDS011;25517;52.422;10.782;2022-12-18T08:48:45;53.65;;;23.38;;
39846;SDS011;25517;52.422;10.782;2022-12-18T08:51:11;49.20;;;23.20;;
39846;SDS011;25517;52.422;10.782;2022-12-18T08:53:37;47.45;;;22.88;;
39846;SDS011;25517;52.422;10.782;2022-12-18T08:56:03;62.47;;;23.85;;
39846;SDS011;25517;52.422;10.782;2022-12-18T08:58:29;54.38;;;24.75;;
39846;SDS011;25517;52.422;10.782;2022-12-18T09:00:59;53.15;;;22.52;;
39846;SDS011;25517;52.422;10.782;2022-12-18T09:03:25;50.17;;;22.73;;
39846;SDS011;25517;52.422;10.782;2022-12-18T09:05:51;53.50;;;24.13;;
39846;SDS011;25517;52.422;10.782;2022-12-18T09:08:16;53.33;;;22.92;;
39846;SDS011;25517;52.422;10.782;2022-12-18T09:10:42;53.92;;;22.48;;
39846;SDS011;25517;52.422;10.782;2022-12-18T09:13:10;50.08;;;23.95;;
39846;SDS011;25517;52.422;10.782;2022-12-18T09:15:40;48.90;;;22.98;;
39846;SDS011;25517;52.422;10.782;2022-12-18T09:18:06;51.38;;;22.40;;
39846;SDS011;25517;52.422;10.782;2022-12-18T09:20:32;45.15;;;22.15;;
39846;SDS011;25517;52.422;10.782;2022-12-18T09:22:57;53.33;;;21.77;;
39846;SDS011;25517;52.422;10.782;2022-12-18T09:25:23;56.33;;;23.88;;
39846;SDS011;25517;52.422;10.782;2022-12-18T09:27:48;50.50;;;22.35;;
39846;SDS011;25517;52.422;10.782;2022-12-18T09:30:14;44.30;;;21.60;;
39846;SDS011;25517;52.422;10.782;2022-12-18T09:32:39;48.22;;;22.55;;
39846;SDS011;25517;52.422;10.782;2022-12-18T09:35:05;44.47;;;18.80;;
39846;SDS011;25517;52.422;10.782;2022-12-18T09:37:31;45.80;;;19.25;;
39846;SDS011;25517;52.422;10.782;2022-12-18T09:39:56;50.63;;;21.40;;
39846;SDS011;25517;52.422;10.782;2022-12-18T09:42:21;46.85;;;22.35;;
39846;SDS011;25517;52.422;10.782;2022-12-18T09:44:49;45.25;;;21.08;;
39846;SDS011;25517;52.422;10.782;2022-12-18T09:47:18;46.50;;;20.40;;
39846;SDS011;25517;52.422;10.782;2022-12-18T09:49:53;40.75;;;19.98;;
39846;SDS011;25517;52.422;10.782;2022-12-18T09:52:23;52.28;;;20.88;;
39846;SDS011;25517;52.422;10.782;2022-12-18T09:54:59;45.50;;;21.77;;
39846;SDS011;25517;52.422;10.782;2022-12-18T09:57:29;42.63;;;20.80;;
39846;SDS011;25517;52.422;10.782;2022-12-18T09:59:59;47.22;;;21.60;;
39846;SDS011;25517;52.422;10.782;2022-12-18T10:02:29;46.20;;;20.95;;
39846;SDS011;25517;52.422;10.782;2022-12-18T10:05:02;49.95;;;23.30;;
39846;SDS011;25517;52.422;10.782;2022-12-18T10:07:36;48.40;;;23.52;;
39846;SDS011;25517;52.422;10.782;2022-12-18T10:10:28;46.13;;;22.08;;
39846;SDS011;25517;52.422;10.782;2022-12-18T10:15:32;48.92;;;22.52;;
39846;SDS011;25517;52.422;10.782;2022-12-18T10:18:19;49.22;;;22.83;;
39846;SDS011;25517;52.422;10.782;2022-12-18T10:21:00;49.33;;;22.77;;
39846;SDS011;25517;52.422;10.782;2022-12-18T10:23:53;48.25;;;23.65;;
39846;SDS011;25517;52.422;10.782;2022-12-18T10:26:44;45.55;;;22.55;;
39846;SDS011;25517;52.422;10.782;2022-12-18T10:29:11;44.67;;;22.42;;
39846;SDS011;25517;52.422;10.782;2022-12-18T10:31:38;47.67;;;23.23;;
39846;SDS011;25517;52.422;10.782;2022-12-18T10:34:04;47.53;;;22.95;;
39846;SDS011;25517;52.422;10.782;2022-12-18T10:36:29;43.25;;;22.88;;
39846;SDS011;25517;52.422;10.782;2022-12-18T10:39:03;49.92;;;24.00;;
39846;SDS011;25517;52.422;10.782;2022-12-18T10:41:43;46.33;;;23.73;;
39846;SDS011;25517;52.422;10.782;2022-12-18T10:44:11;49.10;;;23.80;;
39846;SDS011;25517;52.422;10.782;2022-12-18T10:46:37;42.92;;;22.58;;
39846;SDS011;25517;52.422;10.782;2022-12-18T10:49:02;39.97;;;21.90;;
39846;SDS011;25517;52.422;10.782;2022-12-18T10:51:30;41.22;;;21.02;;
39846;SDS011;25517;52.422;10.782;2022-12-18T10:54:01;42.40;;;22.50;;
